Time;durP1;ratioP1;P1;durP2;ratioP2;P2;SDS_P1;SDS_P2;PMS_P1;PMS_P2;Temp;Humidity;BMP_temperature;BMP_pressure;BME280_temperature;BME280_humidity;BME280_pressure;Samples;Min_cycle;Max_cycle;Signal;HPM_P1;HPM_P2
2022/12/08 00:01:09;;;;;;;16.10;7.80;;;;;;;;;;103163;1305;22495;-85
2022/12/08 00:03:36;;;;;;;21.80;8.80;;;;;;;;;;103371;1310;24237;-81
2022/12/08 00:11:35;;;;;;;20.90;7.20;;;;;;;;;;103363;1308;26687;-80
2022/12/08 00:14:02;;;;;;;20.30;7.90;;;;;;;;;;103070;1310;22548;-83
2022/12/08 00:16:28;;;;;;;21.60;8.10;;;;;;;;;;103002;1310;22505;-78
2022/12/08 00:18:55;;;;;;;24.40;8.60;;;;;;;;;;103008;1310;22469;-84
2022/12/08 00:21:22;;;;;;;24.00;8.50;;;;;;;;;;103162;1310;23291;-81
2022/12/08 00:23:49;;;;;;;21.70;7.60;;;;;;;;;;103271;1302;25297;-80
2022/12/08 00:26:15;;;;;;;22.90;8.90;;;;;;;;;;103479;1307;25245;-79
2022/12/08 00:28:42;;;;;;;24.00;8.50;;;;;;;;;;103333;1307;22466;-85
2022/12/08 00:31:10;;;;;;;26.30;10.10;;;;;;;;;;103306;1307;24321;-78
2022/12/08 00:33:37;;;;;;;23.30;10.40;;;;;;;;;;103019;1307;24266;-83
2022/12/08 00:36:05;;;;;;;22.70;10.10;;;;;;;;;;103304;1308;22474;-83
2022/12/08 00:38:31;;;;;;;23.60;9.20;;;;;;;;;;103234;1310;22954;-80
2022/12/08 00:40:59;;;;;;;26.20;10.40;;;;;;;;;;106818;1300;21899;-77
2022/12/08 00:43:25;;;;;;;21.30;10.30;;;;;;;;;;106707;1305;22065;-77
2022/12/08 00:45:52;;;;;;;27.20;11.10;;;;;;;;;;106886;1307;22073;-78
2022/12/08 00:48:19;;;;;;;30.20;12.00;;;;;;;;;;106919;1306;22094;-77
2022/12/08 00:50:46;;;;;;;27.00;11.60;;;;;;;;;;106752;1307;22132;-77
2022/12/08 00:53:12;;;;;;;23.10;9.80;;;;;;;;;;106757;1308;22079;-77
2022/12/08 00:55:39;;;;;;;24.70;9.50;;;;;;;;;;106715;1310;22069;-77
2022/12/08 00:58:06;;;;;;;18.40;8.50;;;;;;;;;;106841;1308;22058;-77
2022/12/08 01:00:32;;;;;;;18.90;7.70;;;;;;;;;;107025;1300;22076;-77
2022/12/08 01:02:59;;;;;;;19.00;7.30;;;;;;;;;;106779;1300;22098;-78
2022/12/08 01:05:26;;;;;;;17.10;7.10;;;;;;;;;;106855;1307;22077;-77
2022/12/08 01:07:52;;;;;;;17.80;8.20;;;;;;;;;;106836;1305;21961;-78
2022/12/08 01:10:19;;;;;;;18.80;8.70;;;;;;;;;;106719;1302;21894;-77
2022/12/08 01:12:46;;;;;;;16.60;7.20;;;;;;;;;;106696;1310;22844;-77
2022/12/08 01:15:12;;;;;;;20.30;8.10;;;;;;;;;;106706;1309;22088;-77
2022/12/08 01:17:39;;;;;;;19.60;8.00;;;;;;;;;;106681;1305;22095;-77
2022/12/08 01:20:06;;;;;;;16.50;7.20;;;;;;;;;;106719;1310;22087;-77
2022/12/08 01:22:34;;;;;;;17.30;7.20;;;;;;;;;;106673;1307;22097;-77
2022/12/08 01:25:01;;;;;;;16.70;7.10;;;;;;;;;;106863;1307;22072;-77
2022/12/08 01:27:28;;;;;;;16.20;6.40;;;;;;;;;;106853;1307;22096;-77
2022/12/08 01:29:55;;;;;;;18.30;6.80;;;;;;;;;;106760;1307;22080;-78
2022/12/08 01:32:21;;;;;;;14.40;6.10;;;;;;;;;;106825;1302;21980;-78
2022/12/08 01:34:48;;;;;;;18.20;7.00;;;;;;;;;;106593;1310;22110;-77
2022/12/08 01:37:14;;;;;;;16.60;6.10;;;;;;;;;;106684;1310;22075;-77
2022/12/08 01:39:41;;;;;;;17.20;7.10;;;;;;;;;;106613;1310;22086;-77
2022/12/08 01:42:17;;;;;;;15.90;6.00;;;;;;;;;;106612;1310;22761;-77
2022/12/08 01:44:43;;;;;;;17.90;6.90;;;;;;;;;;106698;1304;22095;-78
2022/12/08 01:47:10;;;;;;;18.40;7.30;;;;;;;;;;106915;1307;22100;-78
2022/12/08 01:49:37;;;;;;;16.60;7.10;;;;;;;;;;106734;1307;21978;-77
2022/12/08 01:52:04;;;;;;;18.40;7.80;;;;;;;;;;106830;1308;22106;-77
2022/12/08 01:54:32;;;;;;;20.40;8.60;;;;;;;;;;106785;1301;22098;-78
2022/12/08 01:57:01;;;;;;;21.00;8.10;;;;;;;;;;106696;1295;22267;-77
2022/12/08 01:59:29;;;;;;;18.30;7.90;;;;;;;;;;106617;1310;22071;-78
2022/12/08 02:01:56;;;;;;;17.50;7.50;;;;;;;;;;106631;1310;22672;-78
2022/12/08 02:04:23;;;;;;;17.10;7.20;;;;;;;;;;106670;1307;22070;-78
2022/12/08 02:06:50;;;;;;;23.00;8.60;;;;;;;;;;106710;1307;22089;-77
2022/12/08 02:09:18;;;;;;;21.40;8.70;;;;;;;;;;106704;1310;22081;-77
2022/12/08 02:11:44;;;;;;;16.60;7.20;;;;;;;;;;106874;1305;22074;-78
2022/12/08 02:14:12;;;;;;;18.40;7.00;;;;;;;;;;106768;1310;22962;-78
2022/12/08 02:16:53;;;;;;;17.20;6.80;;;;;;;;;;106716;1307;22075;-77
2022/12/08 02:19:23;;;;;;;18.10;7.60;;;;;;;;;;106705;1310;21932;-77
2022/12/08 02:21:53;;;;;;;18.00;7.30;;;;;;;;;;106708;1309;22062;-78
2022/12/08 02:24:35;;;;;;;17.30;7.50;;;;;;;;;;106973;1298;22682;-78
2022/12/08 02:27:04;;;;;;;20.40;7.90;;;;;;;;;;107050;1306;23625;-78
2022/12/08 02:29:44;;;;;;;18.60;8.10;;;;;;;;;;107151;1291;22051;-77
2022/12/08 02:32:10;;;;;;;19.10;8.60;;;;;;;;;;106931;1307;22110;-78
2022/12/08 02:35:07;;;;;;;22.10;9.70;;;;;;;;;;106877;1307;22093;-78
2022/12/08 02:37:42;;;;;;;22.10;9.80;;;;;;;;;;106424;1313;22121;-78
2022/12/08 02:40:09;;;;;;;21.50;9.40;;;;;;;;;;106196;1314;22113;-78
2022/12/08 02:42:38;;;;;;;20.80;9.20;;;;;;;;;;106271;1314;22124;-78
2022/12/08 02:45:09;;;;;;;25.20;9.40;;;;;;;;;;106245;1312;21999;-78
2022/12/08 02:47:36;;;;;;;21.20;9.30;;;;;;;;;;106257;1312;22108;-78
2022/12/08 02:50:04;;;;;;;21.70;9.30;;;;;;;;;;106303;1312;23338;-78
2022/12/08 02:52:30;;;;;;;21.50;9.10;;;;;;;;;;106461;1312;22138;-78
2022/12/08 02:55:18;;;;;;;23.60;9.60;;;;;;;;;;106261;1306;22101;-78
2022/12/08 02:58:03;;;;;;;20.60;9.40;;;;;;;;;;106270;1314;22989;-78
2022/12/08 03:00:36;;;;;;;20.20;8.90;;;;;;;;;;106271;1313;22889;-78
2022/12/08 03:03:39;;;;;;;20.20;8.80;;;;;;;;;;106291;1313;22093;-77
2022/12/08 03:06:24;;;;;;;21.10;9.40;;;;;;;;;;105483;1321;22824;-78
2022/12/08 03:09:11;;;;;;;21.00;9.30;;;;;;;;;;105521;1322;22850;-78
2022/12/08 03:11:40;;;;;;;24.50;10.10;;;;;;;;;;105481;1323;22125;-78
2022/12/08 03:14:09;;;;;;;27.90;11.10;;;;;;;;;;105768;1315;22313;-78
2022/12/08 03:16:38;;;;;;;29.20;11.30;;;;;;;;;;106202;1313;21695;-78
2022/12/08 03:19:08;;;;;;;24.40;10.10;;;;;;;;;;106569;1300;22143;-78
2022/12/08 03:21:35;;;;;;;27.20;10.80;;;;;;;;;;106264;1308;22783;-78
2022/12/08 03:24:05;;;;;;;22.10;9.40;;;;;;;;;;106119;1315;22151;-78
2022/12/08 03:26:42;;;;;;;19.80;9.60;;;;;;;;;;106252;1314;22817;-78
2022/12/08 03:29:09;;;;;;;25.70;11.50;;;;;;;;;;106138;1315;22153;-78
2022/12/08 03:31:38;;;;;;;26.00;10.80;;;;;;;;;;106162;1315;22035;-77
2022/12/08 03:34:05;;;;;;;20.50;10.20;;;;;;;;;;106198;1315;22176;-78
2022/12/08 03:36:32;;;;;;;24.70;10.80;;;;;;;;;;106118;1315;22106;-78
2022/12/08 03:38:58;;;;;;;22.80;11.10;;;;;;;;;;106178;1315;22119;-78
2022/12/08 03:41:25;;;;;;;24.90;13.20;;;;;;;;;;106837;1307;22080;-78
2022/12/08 03:43:53;;;;;;;23.80;12.60;;;;;;;;;;106921;1307;22100;-79
2022/12/08 03:46:21;;;;;;;21.40;12.70;;;;;;;;;;106776;1302;22091;-78
2022/12/08 03:48:47;;;;;;;19.50;10.00;;;;;;;;;;106764;1307;22094;-78
2022/12/08 03:51:14;;;;;;;18.90;9.90;;;;;;;;;;106758;1309;22825;-78
2022/12/08 03:53:41;;;;;;;18.90;8.80;;;;;;;;;;106708;1310;22080;-78
2022/12/08 03:56:14;;;;;;;17.20;8.50;;;;;;;;;;106715;1307;22278;-78
2022/12/08 03:58:41;;;;;;;15.20;8.10;;;;;;;;;;106885;1302;22790;-78
2022/12/08 04:01:08;;;;;;;14.70;7.90;;;;;;;;;;106879;1307;23118;-77
2022/12/08 04:03:35;;;;;;;14.80;8.00;;;;;;;;;;106919;1307;21972;-78
2022/12/08 04:06:01;;;;;;;15.40;7.50;;;;;;;;;;106845;1299;22532;-78
2022/12/08 04:08:28;;;;;;;16.80;7.10;;;;;;;;;;106858;1308;22851;-78
2022/12/08 04:10:54;;;;;;;14.90;7.30;;;;;;;;;;106859;1302;22085;-78
2022/12/08 04:13:21;;;;;;;15.00;7.20;;;;;;;;;;106744;1309;22695;-78
2022/12/08 04:15:48;;;;;;;15.90;8.60;;;;;;;;;;106671;1307;22231;-78
2022/12/08 04:18:14;;;;;;;15.50;8.60;;;;;;;;;;106758;1307;22057;-78
2022/12/08 04:20:42;;;;;;;15.50;8.60;;;;;;;;;;106846;1307;22103;-78
2022/12/08 04:23:09;;;;;;;16.30;7.80;;;;;;;;;;106869;1307;22075;-78
2022/12/08 04:25:35;;;;;;;16.00;8.50;;;;;;;;;;106910;1307;22069;-78
2022/12/08 04:28:02;;;;;;;16.80;9.50;;;;;;;;;;107001;1301;22060;-78
2022/12/08 04:30:29;;;;;;;16.50;9.00;;;;;;;;;;106746;1308;22077;-78
2022/12/08 04:32:56;;;;;;;14.00;8.30;;;;;;;;;;106663;1304;22078;-78
2022/12/08 04:35:22;;;;;;;13.70;8.10;;;;;;;;;;107104;1294;22105;-78
2022/12/08 04:37:49;;;;;;;15.50;8.70;;;;;;;;;;106726;1307;22046;-78
2022/12/08 04:40:16;;;;;;;19.10;9.60;;;;;;;;;;106701;1295;22818;-78
2022/12/08 04:42:43;;;;;;;15.20;9.10;;;;;;;;;;106902;1307;22078;-78
2022/12/08 04:45:10;;;;;;;17.00;9.40;;;;;;;;;;106876;1307;22187;-78
2022/12/08 04:47:36;;;;;;;15.00;9.30;;;;;;;;;;106830;1307;22081;-78
2022/12/08 04:50:04;;;;;;;15.90;9.30;;;;;;;;;;106708;1309;22065;-78
2022/12/08 04:52:31;;;;;;;14.90;9.10;;;;;;;;;;106780;1305;21948;-78
2022/12/08 04:54:58;;;;;;;18.10;9.10;;;;;;;;;;106704;1310;21689;-78
2022/12/08 04:57:25;;;;;;;15.20;8.70;;;;;;;;;;106628;1299;22087;-78
2022/12/08 04:59:51;;;;;;;17.60;8.90;;;;;;;;;;107093;1285;22051;-78
2022/12/08 05:02:18;;;;;;;19.10;9.00;;;;;;;;;;106765;1310;22064;-78
2022/12/08 05:04:45;;;;;;;17.80;9.10;;;;;;;;;;106749;1301;22093;-78
2022/12/08 05:07:13;;;;;;;19.30;9.20;;;;;;;;;;106826;1308;22549;-78
2022/12/08 05:09:39;;;;;;;19.90;10.60;;;;;;;;;;106697;1309;22090;-78
2022/12/08 05:12:06;;;;;;;27.40;12.40;;;;;;;;;;106643;1310;22043;-79
2022/12/08 05:14:33;;;;;;;31.10;14.50;;;;;;;;;;106711;1309;22075;-78
2022/12/08 05:16:59;;;;;;;31.00;13.40;;;;;;;;;;106687;1307;21971;-78
2022/12/08 05:19:26;;;;;;;35.00;15.30;;;;;;;;;;106807;1304;22067;-78
2022/12/08 05:21:54;;;;;;;28.20;12.50;;;;;;;;;;106903;1307;22791;-78
2022/12/08 05:24:21;;;;;;;22.30;10.60;;;;;;;;;;106928;1307;22602;-78
2022/12/08 05:26:47;;;;;;;20.70;9.80;;;;;;;;;;107139;1285;22462;-78
2022/12/08 05:29:14;;;;;;;18.30;9.90;;;;;;;;;;106704;1304;22084;-78
2022/12/08 05:31:41;;;;;;;19.50;9.40;;;;;;;;;;106859;1309;22134;-78
2022/12/08 05:34:08;;;;;;;20.30;10.20;;;;;;;;;;106689;1305;22694;-78
2022/12/08 05:36:35;;;;;;;29.40;13.10;;;;;;;;;;106740;1295;22124;-78
2022/12/08 05:39:01;;;;;;;28.90;12.60;;;;;;;;;;106903;1307;22103;-78
2022/12/08 05:41:28;;;;;;;29.60;13.50;;;;;;;;;;106838;1307;22131;-78
2022/12/08 05:43:55;;;;;;;33.70;13.40;;;;;;;;;;106908;1299;21792;-78
2022/12/08 05:46:22;;;;;;;34.10;13.80;;;;;;;;;;106800;1307;22092;-78
2022/12/08 05:48:48;;;;;;;26.00;11.50;;;;;;;;;;106747;1310;22084;-78
2022/12/08 05:51:18;;;;;;;28.30;11.90;;;;;;;;;;106867;1310;22091;-78
2022/12/08 05:53:47;;;;;;;25.50;11.50;;;;;;;;;;106738;1310;22683;-78
2022/12/08 05:56:14;;;;;;;25.80;10.70;;;;;;;;;;106773;1301;22045;-78
2022/12/08 05:58:42;;;;;;;31.40;12.00;;;;;;;;;;106963;1300;22059;-78
2022/12/08 06:01:23;;;;;;;30.00;12.40;;;;;;;;;;106703;1302;22761;-79
2022/12/08 06:03:51;;;;;;;37.00;14.70;;;;;;;;;;106786;1308;22262;-78
2022/12/08 06:06:18;;;;;;;31.70;13.80;;;;;;;;;;106880;1307;22534;-78
2022/12/08 06:08:45;;;;;;;30.10;11.70;;;;;;;;;;106825;1307;22056;-78
2022/12/08 06:11:27;;;;;;;27.90;11.90;;;;;;;;;;106771;1310;22914;-78
2022/12/08 06:13:55;;;;;;;22.80;10.30;;;;;;;;;;106634;1305;22068;-78
2022/12/08 06:16:23;;;;;;;23.80;11.30;;;;;;;;;;106669;1310;22115;-78
2022/12/08 06:18:50;;;;;;;24.70;11.20;;;;;;;;;;106696;1307;22086;-78
2022/12/08 06:21:18;;;;;;;21.40;9.60;;;;;;;;;;106712;1307;22049;-78
2022/12/08 06:23:50;;;;;;;21.40;8.70;;;;;;;;;;106913;1298;22076;-78
2022/12/08 06:26:19;;;;;;;17.80;8.10;;;;;;;;;;106753;1302;22098;-78
2022/12/08 06:28:46;;;;;;;19.70;8.40;;;;;;;;;;106832;1307;22767;-78
2022/12/08 06:31:16;;;;;;;18.90;8.40;;;;;;;;;;106701;1310;22688;-78
2022/12/08 06:33:44;;;;;;;22.70;9.50;;;;;;;;;;106692;1310;22072;-78
2022/12/08 06:36:12;;;;;;;22.20;10.20;;;;;;;;;;106729;1310;22836;-78
2022/12/08 06:38:40;;;;;;;24.50;11.20;;;;;;;;;;106689;1307;22061;-78
2022/12/08 06:41:08;;;;;;;24.60;10.10;;;;;;;;;;106816;1307;22089;-78
2022/12/08 06:43:35;;;;;;;22.00;9.00;;;;;;;;;;106785;1307;22072;-78
2022/12/08 06:46:05;;;;;;;20.60;9.20;;;;;;;;;;106739;1307;22650;-78
2022/12/08 06:48:33;;;;;;;24.80;10.10;;;;;;;;;;106844;1307;22328;-78
2022/12/08 06:51:09;;;;;;;19.60;9.20;;;;;;;;;;106696;1310;22066;-78
2022/12/08 06:53:38;;;;;;;15.20;6.70;;;;;;;;;;106644;1310;21968;-77
2022/12/08 06:56:08;;;;;;;13.60;7.20;;;;;;;;;;106551;1306;22055;-78
2022/12/08 06:58:38;;;;;;;19.50;8.00;;;;;;;;;;106595;1310;22817;-77
2022/12/08 07:01:08;;;;;;;16.70;7.10;;;;;;;;;;106924;1294;22054;-77
2022/12/08 07:03:38;;;;;;;16.20;6.60;;;;;;;;;;106650;1309;22111;-77
2022/12/08 07:06:13;;;;;;;14.30;6.40;;;;;;;;;;106673;1310;22110;-77
2022/12/08 07:08:43;;;;;;;12.30;5.70;;;;;;;;;;106721;1310;22566;-78
2022/12/08 07:11:12;;;;;;;14.70;6.80;;;;;;;;;;106616;1310;22128;-78
2022/12/08 07:13:42;;;;;;;16.10;7.80;;;;;;;;;;106663;1310;22086;-78
2022/12/08 07:16:12;;;;;;;18.70;8.00;;;;;;;;;;106702;1300;22019;-78
2022/12/08 07:18:42;;;;;;;20.10;8.70;;;;;;;;;;106688;1310;22104;-78
2022/12/08 07:21:15;;;;;;;24.40;11.00;;;;;;;;;;106804;1300;22755;-78
2022/12/08 07:23:48;;;;;;;23.40;9.40;;;;;;;;;;106731;1308;22067;-78
2022/12/08 07:26:18;;;;;;;22.00;9.70;;;;;;;;;;106639;1310;22127;-78
2022/12/08 07:28:47;;;;;;;18.80;8.90;;;;;;;;;;106743;1309;22281;-77
2022/12/08 07:31:21;;;;;;;18.10;8.30;;;;;;;;;;106602;1309;22082;-78
2022/12/08 07:33:51;;;;;;;16.20;7.70;;;;;;;;;;106692;1310;22670;-79
2022/12/08 07:36:22;;;;;;;18.20;7.80;;;;;;;;;;106609;1310;22098;-77
2022/12/08 07:38:53;;;;;;;18.10;8.60;;;;;;;;;;106624;1310;22107;-77
2022/12/08 07:41:24;;;;;;;19.60;8.00;;;;;;;;;;106599;1310;22074;-77
2022/12/08 07:43:54;;;;;;;18.50;7.90;;;;;;;;;;106726;1310;22080;-77
2022/12/08 07:46:24;;;;;;;18.10;8.10;;;;;;;;;;106825;1309;21925;-78
2022/12/08 07:48:54;;;;;;;17.70;8.40;;;;;;;;;;106683;1310;22085;-78
2022/12/08 07:58:33;;;;;;;19.70;8.20;;;;;;;;;;100420;1342;544706;-81
2022/12/08 08:01:00;;;;;;;19.10;9.30;;;;;;;;;;102462;1319;22525;-82
2022/12/08 08:03:27;;;;;;;16.70;7.80;;;;;;;;;;102548;1312;22735;-79
2022/12/08 08:05:53;;;;;;;19.80;8.10;;;;;;;;;;102555;1319;25335;-78
2022/12/08 08:08:20;;;;;;;15.80;6.60;;;;;;;;;;102620;1317;22511;-82
2022/12/08 08:10:47;;;;;;;17.80;7.70;;;;;;;;;;102507;1319;22487;-79
2022/12/08 08:13:13;;;;;;;17.10;7.30;;;;;;;;;;101768;1313;1495994;-81
2022/12/08 08:15:40;;;;;;;14.40;6.60;;;;;;;;;;102825;1314;24244;-81
2022/12/08 08:18:07;;;;;;;15.40;6.90;;;;;;;;;;102798;1315;25326;-79
2022/12/08 08:20:34;;;;;;;19.20;7.20;;;;;;;;;;102647;1316;23342;-79
2022/12/08 08:23:00;;;;;;;16.70;7.30;;;;;;;;;;102761;1316;22494;-81
2022/12/08 08:25:27;;;;;;;18.00;7.50;;;;;;;;;;102797;1316;22476;-78
2022/12/08 08:27:54;;;;;;;14.40;7.60;;;;;;;;;;102840;1313;25188;-79
2022/12/08 08:30:21;;;;;;;18.70;6.90;;;;;;;;;;102581;1312;25218;-81
2022/12/08 08:32:48;;;;;;;15.00;6.00;;;;;;;;;;102939;1313;25640;-80
2022/12/08 08:35:14;;;;;;;14.80;6.40;;;;;;;;;;106364;1306;22310;-78
2022/12/08 08:37:41;;;;;;;16.00;6.90;;;;;;;;;;106065;1313;22134;-78
2022/12/08 08:40:08;;;;;;;14.10;6.60;;;;;;;;;;106186;1316;22113;-79
2022/12/08 08:42:35;;;;;;;14.10;6.80;;;;;;;;;;106061;1316;22075;-79
2022/12/08 08:45:01;;;;;;;15.30;6.50;;;;;;;;;;106238;1316;22071;-78
2022/12/08 08:47:28;;;;;;;14.30;5.90;;;;;;;;;;106111;1316;22060;-79
2022/12/08 08:49:55;;;;;;;13.90;6.10;;;;;;;;;;106348;1314;22200;-79
2022/12/08 08:52:22;;;;;;;13.00;5.80;;;;;;;;;;106300;1314;22129;-77
2022/12/08 08:54:48;;;;;;;11.30;4.70;;;;;;;;;;106527;1313;22066;-79
2022/12/08 08:57:15;;;;;;;16.40;6.10;;;;;;;;;;106223;1314;22155;-79
2022/12/08 08:59:42;;;;;;;12.30;5.20;;;;;;;;;;106710;1310;22093;-78
2022/12/08 09:02:14;;;;;;;13.80;6.00;;;;;;;;;;106721;1297;22143;-79
2022/12/08 09:04:40;;;;;;;13.10;6.30;;;;;;;;;;106871;1310;22521;-78
2022/12/08 09:07:07;;;;;;;15.70;7.00;;;;;;;;;;106673;1310;22364;-79
2022/12/08 09:09:34;;;;;;;16.30;6.30;;;;;;;;;;106665;1307;22094;-77
2022/12/08 09:12:00;;;;;;;14.30;6.60;;;;;;;;;;106745;1307;22737;-78
2022/12/08 09:14:27;;;;;;;12.20;5.40;;;;;;;;;;106699;1307;22116;-78
2022/12/08 09:16:54;;;;;;;13.50;6.50;;;;;;;;;;106707;1307;22100;-78
2022/12/08 09:19:20;;;;;;;15.60;7.20;;;;;;;;;;106878;1306;22045;-78
2022/12/08 09:21:47;;;;;;;14.10;6.90;;;;;;;;;;106579;1310;22046;-78
2022/12/08 09:24:15;;;;;;;13.40;6.40;;;;;;;;;;106860;1310;22353;-78
2022/12/08 09:26:42;;;;;;;14.40;7.30;;;;;;;;;;106620;1309;22063;-78
2022/12/08 09:29:10;;;;;;;13.50;6.20;;;;;;;;;;106689;1307;22110;-78
2022/12/08 09:31:37;;;;;;;13.20;6.20;;;;;;;;;;106738;1307;22076;-78
2022/12/08 09:34:03;;;;;;;12.30;6.10;;;;;;;;;;106739;1307;21945;-78
2022/12/08 09:36:30;;;;;;;13.20;5.60;;;;;;;;;;106717;1307;22155;-77
2022/12/08 09:38:57;;;;;;;14.10;6.50;;;;;;;;;;106929;1307;22788;-78
2022/12/08 09:41:32;;;;;;;13.20;6.50;;;;;;;;;;106686;1308;22057;-79
2022/12/08 09:44:04;;;;;;;12.30;5.80;;;;;;;;;;106717;1301;22210;-79
2022/12/08 09:46:32;;;;;;;13.50;6.80;;;;;;;;;;106690;1309;22062;-78
2022/12/08 09:49:01;;;;;;;14.20;6.70;;;;;;;;;;106650;1309;22673;-78
2022/12/08 09:51:32;;;;;;;16.10;7.70;;;;;;;;;;106682;1302;22911;-78
2022/12/08 09:54:14;;;;;;;18.40;8.00;;;;;;;;;;106707;1310;22091;-78
2022/12/08 09:56:40;;;;;;;14.60;6.80;;;;;;;;;;106657;1305;22064;-78
2022/12/08 09:59:07;;;;;;;14.30;6.50;;;;;;;;;;106637;1310;22088;-78
2022/12/08 10:01:37;;;;;;;12.40;6.10;;;;;;;;;;106704;1309;22056;-78
2022/12/08 10:04:09;;;;;;;12.20;6.10;;;;;;;;;;106585;1312;22674;-78
2022/12/08 10:06:40;;;;;;;13.90;6.10;;;;;;;;;;106723;1302;22745;-78
2022/12/08 10:09:09;;;;;;;12.20;6.00;;;;;;;;;;106694;1310;22070;-78
2022/12/08 10:11:42;;;;;;;13.30;6.00;;;;;;;;;;106750;1309;22527;-79
2022/12/08 10:14:11;;;;;;;13.10;5.70;;;;;;;;;;106774;1310;22072;-78
2022/12/08 10:16:39;;;;;;;13.20;6.10;;;;;;;;;;106789;1310;22082;-79
2022/12/08 10:19:09;;;;;;;14.90;6.50;;;;;;;;;;106657;1304;22073;-78
2022/12/08 10:21:38;;;;;;;12.00;5.90;;;;;;;;;;106954;1302;22342;-78
2022/12/08 10:24:10;;;;;;;15.30;6.30;;;;;;;;;;106691;1304;22055;-77
2022/12/08 10:26:36;;;;;;;14.10;6.40;;;;;;;;;;106725;1310;22136;-79
2022/12/08 10:29:03;;;;;;;15.00;6.90;;;;;;;;;;106729;1308;22066;-78
2022/12/08 10:31:31;;;;;;;15.60;6.80;;;;;;;;;;106633;1304;21718;-78
2022/12/08 10:33:59;;;;;;;15.20;6.90;;;;;;;;;;106782;1309;22082;-79
2022/12/08 10:36:43;;;;;;;16.20;7.00;;;;;;;;;;106773;1308;22058;-78
2022/12/08 10:39:28;;;;;;;14.00;5.90;;;;;;;;;;106757;1309;22072;-78
2022/12/08 10:42:13;;;;;;;14.80;7.10;;;;;;;;;;106753;1310;22079;-79
2022/12/08 10:44:51;;;;;;;15.50;6.70;;;;;;;;;;106780;1309;22055;-78
2022/12/08 10:47:20;;;;;;;14.00;7.10;;;;;;;;;;106702;1309;21997;-78
2022/12/08 10:49:46;;;;;;;17.90;8.20;;;;;;;;;;106717;1309;22078;-78
2022/12/08 10:52:23;;;;;;;17.80;8.10;;;;;;;;;;106578;1312;22553;-78
2022/12/08 10:54:53;;;;;;;15.40;8.00;;;;;;;;;;106481;1310;22554;-78
2022/12/08 10:57:20;;;;;;;14.70;7.60;;;;;;;;;;106625;1312;22085;-79
2022/12/08 10:59:48;;;;;;;17.30;7.80;;;;;;;;;;106627;1311;22074;-79
2022/12/08 11:02:18;;;;;;;14.80;7.90;;;;;;;;;;106684;1309;22182;-78
2022/12/08 11:04:45;;;;;;;13.40;6.60;;;;;;;;;;106681;1313;22141;-79
2022/12/08 11:07:19;;;;;;;17.10;8.10;;;;;;;;;;106700;1302;22372;-78
2022/12/08 11:09:48;;;;;;;13.60;6.60;;;;;;;;;;106738;1310;22087;-79
2022/12/08 11:12:15;;;;;;;14.60;7.20;;;;;;;;;;106624;1309;21986;-79
2022/12/08 11:14:42;;;;;;;14.50;7.60;;;;;;;;;;106665;1310;22045;-79
2022/12/08 11:17:09;;;;;;;15.30;8.40;;;;;;;;;;106711;1306;22378;-78
2022/12/08 11:19:40;;;;;;;20.50;9.40;;;;;;;;;;106720;1310;22068;-79
2022/12/08 11:22:20;;;;;;;14.60;7.90;;;;;;;;;;106666;1311;22650;-79
2022/12/08 11:24:55;;;;;;;17.40;8.80;;;;;;;;;;106717;1302;22064;-79
2022/12/08 11:27:22;;;;;;;21.90;9.00;;;;;;;;;;106973;1291;22114;-79
2022/12/08 11:29:48;;;;;;;23.80;8.90;;;;;;;;;;107039;1303;22064;-79
2022/12/08 11:32:15;;;;;;;22.70;10.00;;;;;;;;;;106684;1309;22118;-79
2022/12/08 11:34:48;;;;;;;19.20;8.00;;;;;;;;;;106646;1312;22088;-79
2022/12/08 11:37:18;;;;;;;17.60;7.90;;;;;;;;;;106626;1312;22093;-79
2022/12/08 11:39:48;;;;;;;18.80;9.60;;;;;;;;;;106617;1310;22789;-79
2022/12/08 11:42:17;;;;;;;14.00;7.20;;;;;;;;;;106635;1311;22155;-79
2022/12/08 11:44:48;;;;;;;16.10;7.00;;;;;;;;;;106723;1308;22078;-79
2022/12/08 11:47:19;;;;;;;18.40;8.60;;;;;;;;;;106664;1312;22254;-79
2022/12/08 11:49:47;;;;;;;17.90;9.20;;;;;;;;;;106711;1310;22053;-79
2022/12/08 11:52:44;;;;;;;23.70;8.50;;;;;;;;;;106658;1310;22107;-79
2022/12/08 11:55:14;;;;;;;18.30;8.40;;;;;;;;;;106637;1313;22095;-79
2022/12/08 11:57:41;;;;;;;19.90;8.60;;;;;;;;;;106668;1313;22790;-79
2022/12/08 12:00:11;;;;;;;17.10;7.20;;;;;;;;;;106696;1301;22822;-79
2022/12/08 12:02:41;;;;;;;19.00;7.60;;;;;;;;;;106584;1311;22042;-79
2022/12/08 12:05:12;;;;;;;20.30;8.20;;;;;;;;;;106701;1310;22398;-79
2022/12/08 12:07:57;;;;;;;19.30;8.80;;;;;;;;;;106691;1311;22440;-79
2022/12/08 12:10:26;;;;;;;20.30;9.90;;;;;;;;;;106667;1313;22788;-79
2022/12/08 12:12:57;;;;;;;22.60;9.10;;;;;;;;;;106646;1309;22067;-79
2022/12/08 12:15:26;;;;;;;24.10;10.10;;;;;;;;;;106600;1313;22780;-79
2022/12/08 12:17:56;;;;;;;16.00;8.00;;;;;;;;;;106699;1310;22115;-79
2022/12/08 12:20:26;;;;;;;19.50;8.80;;;;;;;;;;106903;1294;22073;-79
2022/12/08 12:23:12;;;;;;;24.40;10.80;;;;;;;;;;106581;1311;22768;-79
2022/12/08 12:25:45;;;;;;;29.90;10.90;;;;;;;;;;106711;1307;22762;-79
2022/12/08 12:28:12;;;;;;;21.10;9.90;;;;;;;;;;106675;1310;22897;-79
2022/12/08 12:30:58;;;;;;;19.90;8.90;;;;;;;;;;106666;1310;22088;-79
2022/12/08 12:33:25;;;;;;;18.40;8.60;;;;;;;;;;106654;1310;22124;-78
2022/12/08 12:35:55;;;;;;;21.50;9.20;;;;;;;;;;106556;1310;22625;-79
2022/12/08 12:41:13;;;;;;;23.40;10.10;;;;;;;;;;106568;1311;22079;-79
2022/12/08 12:43:59;;;;;;;16.80;8.50;;;;;;;;;;106483;1310;22055;-78
2022/12/08 12:46:26;;;;;;;19.90;9.70;;;;;;;;;;106718;1310;22056;-79
2022/12/08 12:49:13;;;;;;;17.30;8.00;;;;;;;;;;106979;1295;22105;-79
2022/12/08 12:51:39;;;;;;;18.10;8.00;;;;;;;;;;106694;1310;22074;-79
2022/12/08 12:54:22;;;;;;;16.80;8.00;;;;;;;;;;106647;1310;21968;-78
2022/12/08 12:56:54;;;;;;;19.80;7.50;;;;;;;;;;106546;1313;22296;-79
2022/12/08 12:59:34;;;;;;;20.70;9.10;;;;;;;;;;106504;1313;22085;-78
2022/12/08 13:02:02;;;;;;;23.30;10.40;;;;;;;;;;106623;1310;22063;-79
2022/12/08 13:04:34;;;;;;;21.60;9.50;;;;;;;;;;106618;1310;22097;-79
2022/12/08 13:07:01;;;;;;;21.90;8.60;;;;;;;;;;106644;1310;22077;-79
2022/12/08 13:09:30;;;;;;;19.30;8.50;;;;;;;;;;106623;1310;22078;-78
2022/12/08 13:11:59;;;;;;;16.80;7.30;;;;;;;;;;106635;1310;22071;-79
2022/12/08 13:14:27;;;;;;;19.00;8.70;;;;;;;;;;106571;1310;22756;-78
2022/12/08 13:16:56;;;;;;;18.20;9.00;;;;;;;;;;106588;1310;22120;-78
2022/12/08 13:19:24;;;;;;;13.90;6.40;;;;;;;;;;106588;1313;22004;-79
2022/12/08 13:21:50;;;;;;;16.80;8.00;;;;;;;;;;106573;1310;22067;-79
2022/12/08 13:24:23;;;;;;;15.80;7.20;;;;;;;;;;106584;1310;21963;-79
2022/12/08 13:27:10;;;;;;;17.70;7.80;;;;;;;;;;106623;1310;22101;-78
2022/12/08 13:29:37;;;;;;;15.60;7.30;;;;;;;;;;106668;1310;22545;-79
2022/12/08 13:32:07;;;;;;;18.80;8.60;;;;;;;;;;106742;1307;22063;-79
2022/12/08 13:34:38;;;;;;;18.40;7.60;;;;;;;;;;106802;1307;22076;-78
2022/12/08 13:37:04;;;;;;;25.00;9.70;;;;;;;;;;106653;1309;22718;-78
2022/12/08 13:39:35;;;;;;;27.50;12.00;;;;;;;;;;106764;1310;22089;-79
2022/12/08 13:42:19;;;;;;;44.40;17.20;;;;;;;;;;106599;1309;22070;-78
2022/12/08 13:45:05;;;;;;;39.20;15.80;;;;;;;;;;106666;1308;22100;-78
2022/12/08 13:47:51;;;;;;;32.60;13.40;;;;;;;;;;106871;1307;22082;-77
2022/12/08 13:50:22;;;;;;;29.90;13.00;;;;;;;;;;106866;1307;22224;-77
2022/12/08 13:52:57;;;;;;;32.90;14.20;;;;;;;;;;106726;1303;22775;-77
2022/12/08 13:55:27;;;;;;;35.50;16.50;;;;;;;;;;106755;1308;22102;-77
2022/12/08 13:57:56;;;;;;;33.40;14.30;;;;;;;;;;106668;1309;22940;-77
2022/12/08 14:00:26;;;;;;;30.60;12.90;;;;;;;;;;106883;1303;22838;-77
2022/12/08 14:02:58;;;;;;;30.10;14.10;;;;;;;;;;106594;1305;22069;-77
2022/12/08 14:05:37;;;;;;;33.80;14.00;;;;;;;;;;106664;1303;22103;-77
2022/12/08 14:08:09;;;;;;;37.70;16.70;;;;;;;;;;106708;1310;22738;-77
2022/12/08 14:10:37;;;;;;;40.50;16.50;;;;;;;;;;106692;1310;22697;-77
2022/12/08 14:13:09;;;;;;;41.30;16.80;;;;;;;;;;106726;1309;22102;-77
2022/12/08 14:15:38;;;;;;;38.50;16.50;;;;;;;;;;106653;1309;21949;-77
2022/12/08 14:18:20;;;;;;;39.90;16.10;;;;;;;;;;106636;1310;22745;-77
2022/12/08 14:20:58;;;;;;;41.50;16.70;;;;;;;;;;106596;1309;22095;-76
2022/12/08 14:23:25;;;;;;;42.40;16.00;;;;;;;;;;106755;1309;22104;-77
2022/12/08 14:25:54;;;;;;;39.00;16.80;;;;;;;;;;106730;1308;22099;-77
2022/12/08 14:28:22;;;;;;;44.80;18.60;;;;;;;;;;106710;1310;22083;-77
2022/12/08 14:30:50;;;;;;;43.60;18.10;;;;;;;;;;106677;1310;22103;-77
2022/12/08 14:33:17;;;;;;;46.20;17.50;;;;;;;;;;106839;1310;22071;-77
2022/12/08 14:35:49;;;;;;;36.40;17.70;;;;;;;;;;106678;1301;22070;-77
2022/12/08 14:38:17;;;;;;;49.50;19.70;;;;;;;;;;106654;1309;22416;-77
2022/12/08 14:40:58;;;;;;;50.00;21.30;;;;;;;;;;106906;1302;22076;-77
2022/12/08 14:43:29;;;;;;;50.70;19.60;;;;;;;;;;106646;1310;22069;-77